createdAt,value
2023-04-22T00:00:59.857Z,85383.81
2023-04-22T00:03:26.224Z,85392.53
2023-04-22T00:05:52.631Z,85386.88
2023-04-22T00:08:18.860Z,85382.09
2023-04-22T00:10:44.956Z,85371.16
2023-04-22T00:13:11.087Z,85376.56
2023-04-22T00:15:37.214Z,85382.38
2023-04-22T00:18:03.408Z,85382.78
2023-04-22T00:20:29.570Z,85378.97
2023-04-22T00:22:55.694Z,85375.47
2023-04-22T00:25:21.797Z,85375.06
2023-04-22T00:27:47.904Z,85384.72
2023-04-22T00:30:14.027Z,85375.22
2023-04-22T00:32:40.157Z,85364.59
2023-04-22T00:35:06.283Z,85369.38
2023-04-22T00:37:32.413Z,85369.75
2023-04-22T00:39:58.526Z,85372.66
2023-04-22T00:42:24.644Z,85369.44
2023-04-22T00:44:50.756Z,85369.50
2023-04-22T00:47:17.086Z,85355.69
2023-04-22T00:49:43.265Z,85356.88
2023-04-22T00:52:09.383Z,85357.69
2023-04-22T00:54:35.491Z,85352.94
2023-04-22T00:57:01.595Z,85354.34
2023-04-22T00:59:27.719Z,85352.13
2023-04-22T01:01:53.846Z,85364.06
2023-04-22T01:04:20.025Z,85367.63
2023-04-22T01:06:46.180Z,85358.56
2023-04-22T01:09:12.278Z,85364.69
2023-04-22T01:11:38.408Z,85359.53
2023-04-22T01:14:04.512Z,85360.75
2023-04-22T01:16:30.703Z,85359.84
2023-04-22T01:18:56.836Z,85355.53
2023-04-22T01:21:22.953Z,85349.56
2023-04-22T01:23:49.080Z,85358.13
2023-04-22T01:26:15.194Z,85353.06
2023-04-22T01:28:41.294Z,85348.34
2023-04-22T01:31:07.404Z,85364.72
2023-04-22T01:33:33.485Z,85365.63
2023-04-22T01:35:59.581Z,85357.66
2023-04-22T01:38:25.679Z,85356.47
2023-04-22T01:40:51.801Z,85352.91
2023-04-22T01:43:17.933Z,85358.56
2023-04-22T01:45:44.082Z,85359.53
2023-04-22T01:48:10.234Z,85359.78
2023-04-22T01:50:36.340Z,85357.41
2023-04-22T01:53:02.470Z,85352.16
2023-04-22T01:55:28.569Z,85354.53
2023-04-22T01:57:54.704Z,85351.09
2023-04-22T02:00:20.829Z,85350.94
2023-04-22T02:02:47.064Z,85358.28
2023-04-22T02:05:13.328Z,85351.47
2023-04-22T02:07:39.513Z,85350.81
2023-04-22T02:10:05.613Z,85356.78
2023-04-22T02:12:31.730Z,85362.97
2023-04-22T02:14:57.853Z,85351.59
2023-04-22T02:17:23.976Z,85352.38
2023-04-22T02:19:50.107Z,85350.25
2023-04-22T02:22:16.255Z,85352.59
2023-04-22T02:24:42.374Z,85358.25
2023-04-22T02:27:08.478Z,85350.16
2023-04-22T02:29:34.630Z,85353.94
2023-04-22T02:32:00.744Z,85357.13
2023-04-22T02:34:26.882Z,85359.28
2023-04-22T02:36:52.992Z,85350.72
2023-04-22T02:39:19.089Z,85354.28
2023-04-22T02:41:45.176Z,85348.13
2023-04-22T02:44:11.289Z,85350.94
2023-04-22T02:46:37.484Z,85344.13
2023-04-22T02:49:03.625Z,85350.50
2023-04-22T02:51:29.722Z,85356.69
2023-04-22T02:53:55.822Z,85359.50
2023-04-22T02:56:21.956Z,85351.69
2023-04-22T02:58:48.051Z,85358.56
2023-04-22T03:01:14.215Z,85357.66
2023-04-22T03:03:40.688Z,85352.88
2023-04-22T03:06:06.864Z,85354.75
2023-04-22T03:08:32.976Z,85353.63
2023-04-22T03:10:59.056Z,85349.53
2023-04-22T03:13:25.166Z,85349.31
2023-04-22T03:15:51.274Z,85343.38
2023-04-22T03:18:17.384Z,85355.50
2023-04-22T03:20:43.497Z,85350.75
2023-04-22T03:23:09.616Z,85345.81
2023-04-22T03:25:35.731Z,85343.88
2023-04-22T03:30:28.049Z,85343.41
2023-04-22T03:32:54.175Z,85342.47
2023-04-22T03:35:20.298Z,85342.94
2023-04-22T03:37:46.393Z,85346.25
2023-04-22T03:40:13.678Z,85347.22
2023-04-22T03:42:40.018Z,85343.22
2023-04-22T03:45:06.128Z,85348.91
2023-04-22T03:47:32.270Z,85347.94
2023-04-22T03:49:58.392Z,85350.06
2023-04-22T03:52:24.502Z,85343.69
2023-04-22T03:54:50.605Z,85345.56
2023-04-22T03:57:16.702Z,85337.75
2023-04-22T03:59:42.864Z,85350.31
2023-04-22T04:02:09.142Z,85337.53
2023-04-22T04:04:35.706Z,85328.75
2023-04-22T04:07:02.103Z,85337.28
2023-04-22T04:09:28.181Z,85331.59
2023-04-22T04:11:54.291Z,85330.38
2023-04-22T04:14:20.384Z,85331.13
2023-04-22T04:16:46.488Z,85326.59
2023-04-22T04:19:12.653Z,85331.34
2023-04-22T04:21:38.782Z,85329.72
2023-04-22T04:24:04.949Z,85337.75
2023-04-22T04:26:31.064Z,85338.47
2023-04-22T04:28:57.175Z,85334.63
2023-04-22T04:31:23.350Z,85337.44
2023-04-22T04:33:49.532Z,85339.00
2023-04-22T04:36:15.654Z,85343.63
2023-04-22T04:38:41.744Z,85348.78
2023-04-22T04:41:07.902Z,85353.06
2023-04-22T04:43:34.033Z,85353.53
2023-04-22T04:46:00.163Z,85362.81
2023-04-22T04:48:26.290Z,85358.06
2023-04-22T04:50:52.425Z,85362.06
2023-04-22T04:53:18.529Z,85356.56
2023-04-22T04:55:44.624Z,85354.72
2023-04-22T04:58:10.727Z,85357.56
2023-04-22T05:00:36.823Z,85364.94
2023-04-22T05:03:03.162Z,85363.00
2023-04-22T05:05:29.393Z,85357.00
2023-04-22T05:07:55.478Z,85362.25
2023-04-22T05:10:21.576Z,85348.75
2023-04-22T05:12:47.692Z,85353.66
2023-04-22T05:15:13.783Z,85353.63
2023-04-22T05:17:39.942Z,85351.78
2023-04-22T05:20:06.131Z,85352.47
2023-04-22T05:22:32.233Z,85352.16
2023-04-22T05:24:58.323Z,85343.38
2023-04-22T05:27:24.438Z,85352.38
2023-04-22T05:29:50.551Z,85350.25
2023-04-22T05:32:16.755Z,85350.47
2023-04-22T05:34:43.970Z,85349.31
2023-04-22T05:37:10.098Z,85348.38
2023-04-22T05:39:36.194Z,85350.75
2023-04-22T05:42:02.284Z,85351.94
2023-04-22T05:44:28.374Z,85342.75
2023-04-22T05:46:54.482Z,85354.13
2023-04-22T05:49:20.573Z,85353.88
2023-04-22T05:51:46.657Z,85357.31
2023-04-22T05:54:12.744Z,85352.28
2023-04-22T05:56:38.848Z,85348.31
2023-04-22T05:59:05.006Z,85362.09
2023-04-22T06:01:31.109Z,85369.81
2023-04-22T06:03:57.534Z,85367.13
2023-04-22T06:06:24.009Z,85365.06
2023-04-22T06:08:50.141Z,85365.66
2023-04-22T06:11:16.251Z,85374.16
2023-04-22T06:13:42.336Z,85378.81
2023-04-22T06:18:39.465Z,85376.66
2023-04-22T06:21:05.582Z,85389.94
2023-04-22T06:23:31.695Z,85394.81
2023-04-22T06:25:57.808Z,85408.88
2023-04-22T06:28:23.889Z,85406.75
2023-04-22T06:30:50.060Z,85417.06
2023-04-22T06:33:16.268Z,85424.88
2023-04-22T06:35:42.374Z,85415.16
2023-04-22T06:38:08.455Z,85424.06
2023-04-22T06:40:34.561Z,85421.41
2023-04-22T06:43:00.689Z,85425.25
2023-04-22T06:45:26.787Z,85414.69
2023-04-22T06:47:52.912Z,85423.53
2023-04-22T06:50:19.013Z,85419.94
2023-04-22T06:52:45.100Z,85418.25
2023-04-22T06:55:11.222Z,85417.88
2023-04-22T06:57:37.353Z,85419.09
2023-04-22T07:00:03.530Z,85421.50
2023-04-22T07:02:29.675Z,85408.44
2023-04-22T07:04:55.815Z,85399.47
2023-04-22T07:07:21.905Z,85399.06
2023-04-22T07:09:48.026Z,85395.94
2023-04-22T07:12:14.121Z,85396.97
2023-04-22T07:14:40.200Z,85395.84
2023-04-22T07:17:06.298Z,85391.78
2023-04-22T07:19:33.317Z,85391.28
2023-04-22T07:22:01.282Z,85387.50
2023-04-22T07:24:27.387Z,85382.41
2023-04-22T07:26:53.474Z,85380.59
2023-04-22T07:29:19.585Z,85364.75
2023-04-22T07:31:45.776Z,85367.16
2023-04-22T07:34:11.924Z,85363.72
2023-04-22T07:36:38.064Z,85352.78
2023-04-22T07:39:04.189Z,85354.91
2023-04-22T07:41:30.330Z,85343.69
2023-04-22T07:43:56.429Z,85340.69
2023-04-22T07:46:22.584Z,85336.28
2023-04-22T07:48:48.781Z,85326.94
2023-04-22T07:51:14.897Z,85323.38
2023-04-22T07:53:40.989Z,85314.94
2023-04-22T07:56:07.095Z,85314.41
2023-04-22T07:58:33.213Z,85313.19
2023-04-22T08:00:59.387Z,85305.13
2023-04-22T08:03:25.732Z,85316.22
2023-04-22T08:05:52.014Z,85310.00
2023-04-22T08:08:18.124Z,85308.00
2023-04-22T08:10:44.235Z,85318.66
2023-04-22T08:13:10.347Z,85315.97
2023-04-22T08:15:36.486Z,85317.00
2023-04-22T08:18:02.681Z,85325.19
2023-04-22T08:20:28.789Z,85320.22
2023-04-22T08:22:54.906Z,85326.38
2023-04-22T08:25:21.051Z,85315.69
2023-04-22T08:27:47.164Z,85318.84
2023-04-22T08:30:13.288Z,85330.34
2023-04-22T08:32:39.407Z,85330.09
2023-04-22T08:35:05.815Z,85337.84
2023-04-22T08:37:31.952Z,85344.63
2023-04-22T08:39:58.083Z,85378.13
2023-04-22T08:42:24.184Z,85360.41
2023-04-22T08:44:50.278Z,85363.91
2023-04-22T08:47:16.374Z,85361.66
2023-04-22T08:49:42.490Z,85354.13
2023-04-22T08:52:08.576Z,85350.31
2023-04-22T08:54:34.678Z,85353.84
2023-04-22T08:57:00.823Z,85357.13
2023-04-22T08:59:26.912Z,85353.38
2023-04-22T09:01:53.048Z,85355.66
2023-04-22T09:04:19.248Z,85348.25
2023-04-22T09:06:45.409Z,85344.47
2023-04-22T09:09:11.512Z,85333.09
2023-04-22T09:11:37.661Z,85337.19
2023-04-22T09:14:03.754Z,85334.00
2023-04-22T09:16:29.891Z,85337.66
2023-04-22T09:18:56.038Z,85339.16
2023-04-22T09:21:22.143Z,85333.16
2023-04-22T09:23:48.257Z,85336.06
2023-04-22T09:26:14.355Z,85328.22
2023-04-22T09:28:40.490Z,85320.44
2023-04-22T09:31:06.598Z,85326.75
2023-04-22T09:33:32.725Z,85314.66
2023-04-22T09:35:58.835Z,85313.72
2023-04-22T09:38:24.957Z,85311.66
2023-04-22T09:40:51.056Z,85309.53
2023-04-22T09:43:17.190Z,85309.41
2023-04-22T09:45:43.369Z,85320.06
2023-04-22T09:48:09.520Z,85327.41
2023-04-22T09:50:35.665Z,85319.13
2023-04-22T09:53:01.776Z,85331.50
2023-04-22T09:55:27.889Z,85330.78
2023-04-22T09:57:54.007Z,85337.69
2023-04-22T10:00:20.098Z,85348.41
2023-04-22T10:02:46.292Z,85357.00
2023-04-22T10:05:12.430Z,85350.34
2023-04-22T10:07:38.541Z,85353.16
2023-04-22T10:10:04.684Z,85349.66
2023-04-22T10:12:35.541Z,85343.69
2023-04-22T10:15:02.182Z,85358.69
2023-04-22T10:17:28.289Z,85359.00
2023-04-22T10:19:54.391Z,85350.56
2023-04-22T10:22:20.519Z,85347.38
2023-04-22T10:24:46.626Z,85347.41
2023-04-22T10:27:12.729Z,85342.63
2023-04-22T10:29:39.374Z,85340.41
2023-04-22T10:32:05.658Z,85337.97
2023-04-22T10:34:31.776Z,85344.34
2023-04-22T10:36:57.941Z,85347.66
2023-04-22T10:39:24.084Z,85348.06
2023-04-22T10:41:50.206Z,85353.38
2023-04-22T10:44:16.330Z,85357.97
2023-04-22T10:46:42.516Z,85363.25
2023-04-22T10:49:08.863Z,85366.06
2023-04-22T10:51:34.993Z,85363.78
2023-04-22T10:54:01.107Z,85364.28
2023-04-22T10:56:27.224Z,85366.06
2023-04-22T10:58:53.335Z,85368.34
2023-04-22T11:01:19.455Z,85358.84
2023-04-22T11:03:45.645Z,85365.53
2023-04-22T11:06:11.787Z,85357.78
2023-04-22T11:08:37.888Z,85364.97
2023-04-22T11:11:03.986Z,85362.38
2023-04-22T11:13:30.070Z,85354.72
2023-04-22T11:15:56.240Z,85352.66
2023-04-22T11:18:22.390Z,85352.66
2023-04-22T11:20:48.556Z,85344.50
2023-04-22T11:23:14.659Z,85345.16
2023-04-22T11:25:40.786Z,85343.66
2023-04-22T11:28:06.877Z,85345.13
2023-04-22T11:30:32.966Z,85339.59
2023-04-22T11:32:59.146Z,85338.91
2023-04-22T11:35:25.352Z,85339.47
2023-04-22T11:37:51.507Z,85338.63
2023-04-22T11:40:30.142Z,85335.56
2023-04-22T11:42:57.791Z,85335.16
2023-04-22T11:45:23.884Z,85328.59
2023-04-22T11:47:50.004Z,85335.16
2023-04-22T11:50:16.156Z,85325.00
2023-04-22T11:52:42.276Z,85322.09
2023-04-22T11:55:08.401Z,85317.19
2023-04-22T11:57:34.515Z,85312.78
2023-04-22T12:00:00.608Z,85305.41
2023-04-22T12:02:26.920Z,85305.31
2023-04-22T12:04:53.070Z,85307.84
2023-04-22T12:07:19.201Z,85304.69
2023-04-22T12:09:45.304Z,85311.03
2023-04-22T12:12:11.423Z,85313.19
2023-04-22T12:14:37.539Z,85309.47
2023-04-22T12:17:03.676Z,85309.03
2023-04-22T12:19:29.788Z,85302.53
2023-04-22T12:21:55.890Z,85302.66
2023-04-22T12:24:22.007Z,85313.38
2023-04-22T12:26:48.112Z,85318.47
2023-04-22T12:29:14.230Z,85320.22
2023-04-22T12:31:40.370Z,85326.00
2023-04-22T12:34:06.533Z,85326.06
2023-04-22T12:36:32.709Z,85331.72
2023-04-22T12:38:58.821Z,85321.56
2023-04-22T12:41:24.906Z,85337.47
2023-04-22T12:43:51.020Z,85326.00
2023-04-22T12:46:17.152Z,85334.31
2023-04-22T12:48:43.283Z,85342.81
2023-04-22T12:51:09.392Z,85333.44
2023-04-22T12:53:35.515Z,85338.53
2023-04-22T12:56:01.631Z,85333.38
2023-04-22T12:58:27.754Z,85331.88
2023-04-22T13:00:53.880Z,85333.19
2023-04-22T13:03:20.188Z,85346.66
2023-04-22T13:05:46.464Z,85345.78
2023-04-22T13:08:12.557Z,85332.47
2023-04-22T13:10:38.680Z,85349.03
2023-04-22T13:15:33.777Z,85351.88
2023-04-22T13:17:59.928Z,85354.25
2023-04-22T13:20:26.055Z,85359.00
2023-04-22T13:22:53.551Z,85359.53
2023-04-22T13:25:19.866Z,85361.81
2023-04-22T13:27:46.015Z,85367.09
2023-04-22T13:30:12.139Z,85369.78
2023-04-22T13:32:38.278Z,85362.16
2023-04-22T13:35:04.436Z,85352.00
2023-04-22T13:37:30.584Z,85348.91
2023-04-22T13:39:56.690Z,85350.03
2023-04-22T13:42:22.794Z,85345.00
2023-04-22T13:44:48.911Z,85341.78
2023-04-22T13:47:15.017Z,85345.88
2023-04-22T13:49:41.361Z,85337.88
2023-04-22T13:52:07.596Z,85341.75
2023-04-22T13:54:33.753Z,85339.63
2023-04-22T13:56:59.886Z,85343.53
2023-04-22T13:59:25.974Z,85329.19
2023-04-22T14:01:52.062Z,85334.50
2023-04-22T14:04:18.199Z,85324.78
2023-04-22T14:06:44.352Z,85318.44
2023-04-22T14:09:10.464Z,85316.06
2023-04-22T14:11:36.577Z,85307.50
2023-04-22T14:14:02.696Z,85314.59
2023-04-22T14:16:28.824Z,85308.50
2023-04-22T14:18:54.957Z,85300.66
2023-04-22T14:21:21.046Z,85299.41
2023-04-22T14:23:47.149Z,85301.03
2023-04-22T14:26:13.256Z,85300.84
2023-04-22T14:28:39.353Z,85292.22
2023-04-22T14:31:05.488Z,85296.53
2023-04-22T14:33:31.615Z,85287.84
2023-04-22T14:35:57.736Z,85290.97
2023-04-22T14:38:23.821Z,85282.69
2023-04-22T14:40:49.948Z,85280.16
2023-04-22T14:43:16.047Z,85278.78
2023-04-22T14:45:42.166Z,85281.13
2023-04-22T14:48:08.330Z,85273.00
2023-04-22T14:50:34.450Z,85266.00
2023-04-22T14:53:00.587Z,85263.13
2023-04-22T14:55:26.738Z,85261.78
2023-04-22T14:57:52.825Z,85264.00
2023-04-22T15:00:18.946Z,85263.25
2023-04-22T15:02:45.160Z,85261.69
2023-04-22T15:05:11.504Z,85265.75
2023-04-22T15:07:37.593Z,85253.88
2023-04-22T15:10:03.832Z,85263.25
2023-04-22T15:12:29.959Z,85262.34
2023-04-22T15:14:56.073Z,85256.03
2023-04-22T15:17:22.240Z,85262.94
2023-04-22T15:19:48.384Z,85264.81
2023-04-22T15:22:14.509Z,85268.00
2023-04-22T15:24:40.594Z,85277.25
2023-04-22T15:27:06.724Z,85279.38
2023-04-22T15:29:32.845Z,85289.50
2023-04-22T15:31:58.969Z,85284.47
2023-04-22T15:34:25.086Z,85287.75
2023-04-22T15:36:51.181Z,85296.03
2023-04-22T15:39:17.314Z,85296.06
2023-04-22T15:41:43.417Z,85297.38
2023-04-22T15:44:10.551Z,85306.41
2023-04-22T15:46:38.515Z,85293.69
2023-04-22T15:49:04.725Z,85296.66
2023-04-22T15:51:30.904Z,85306.22
2023-04-22T15:53:56.999Z,85306.03
2023-04-22T15:56:23.109Z,85307.66
2023-04-22T15:58:49.215Z,85303.28
2023-04-22T16:01:19.470Z,85306.13
2023-04-22T16:03:46.087Z,85304.75
2023-04-22T16:06:12.337Z,85312.84
2023-04-22T16:08:38.465Z,85308.28
2023-04-22T16:11:04.568Z,85304.19
2023-04-22T16:13:30.683Z,85297.47
2023-04-22T16:15:56.804Z,85302.91
2023-04-22T16:18:22.947Z,85286.66
2023-04-22T16:20:49.114Z,85288.31
2023-04-22T16:23:15.221Z,85285.03
2023-04-22T16:25:41.343Z,85286.50
2023-04-22T16:28:07.437Z,85291.34
2023-04-22T16:30:33.557Z,85286.53
2023-04-22T16:32:59.799Z,85286.22
2023-04-22T16:35:25.992Z,85284.41
2023-04-22T16:37:52.425Z,85280.72
2023-04-22T16:40:18.506Z,85281.19
2023-04-22T16:42:44.625Z,85278.03
2023-04-22T16:45:10.738Z,85279.38
2023-04-22T16:47:36.893Z,85278.16
2023-04-22T16:50:03.005Z,85281.84
2023-04-22T16:52:29.131Z,85281.28
2023-04-22T16:54:55.218Z,85280.06
2023-04-22T16:57:21.309Z,85280.66
2023-04-22T16:59:47.429Z,85277.66
2023-04-22T17:02:13.623Z,85271.16
2023-04-22T17:04:39.902Z,85275.97
2023-04-22T17:07:06.006Z,85273.28
2023-04-22T17:09:32.116Z,85274.00
2023-04-22T17:11:58.216Z,85265.47
2023-04-22T17:14:24.324Z,85275.94
2023-04-22T17:16:50.413Z,85275.66
2023-04-22T17:19:16.528Z,85281.56
2023-04-22T17:21:42.655Z,85276.38
2023-04-22T17:24:11.196Z,85276.34
2023-04-22T17:26:37.418Z,85277.72
2023-04-22T17:29:03.527Z,85271.81
2023-04-22T17:31:29.671Z,85272.13
2023-04-22T17:33:55.813Z,85272.84
2023-04-22T17:36:21.905Z,85269.47
2023-04-22T17:38:47.998Z,85274.97
2023-04-22T17:41:14.152Z,85277.94
2023-04-22T17:43:40.264Z,85274.25
2023-04-22T17:46:06.359Z,85285.00
2023-04-22T17:48:32.448Z,85279.59
2023-04-22T17:50:58.532Z,85279.72
2023-04-22T17:53:24.627Z,85291.97
2023-04-22T17:55:50.747Z,85290.75
2023-04-22T17:58:16.888Z,85291.84
2023-04-22T18:00:43.028Z,85293.72
2023-04-22T18:03:09.354Z,85288.28
2023-04-22T18:05:35.550Z,85289.72
2023-04-22T18:08:01.651Z,85303.47
2023-04-22T18:10:27.762Z,85291.50
2023-04-22T18:12:53.868Z,85296.94
2023-04-22T18:15:19.991Z,85306.13
2023-04-22T18:17:46.119Z,85307.75
2023-04-22T18:20:18.043Z,85311.09
2023-04-22T18:22:44.535Z,85311.06
2023-04-22T18:25:10.661Z,85309.66
2023-04-22T18:27:36.778Z,85313.38
2023-04-22T18:30:02.892Z,85312.84
2023-04-22T18:32:29.032Z,85324.13
2023-04-22T18:34:55.141Z,85316.72
2023-04-22T18:37:21.268Z,85327.81
2023-04-22T18:39:47.382Z,85329.59
2023-04-22T18:42:13.500Z,85335.19
2023-04-22T18:44:39.758Z,85337.84
2023-04-22T18:47:06.032Z,85334.84
2023-04-22T18:49:32.151Z,85336.75
2023-04-22T18:51:58.271Z,85333.22
2023-04-22T18:54:24.364Z,85338.81
2023-04-22T18:56:50.463Z,85344.44
2023-04-22T18:59:16.576Z,85348.97
2023-04-22T19:01:42.752Z,85348.44
2023-04-22T19:04:08.962Z,85347.69
2023-04-22T19:06:35.130Z,85342.72
2023-04-22T19:09:01.219Z,85352.03
2023-04-22T19:11:27.300Z,85348.03
2023-04-22T19:13:53.781Z,85353.13
2023-04-22T19:16:20.072Z,85356.25
2023-04-22T19:18:46.196Z,85355.94
2023-04-22T19:21:12.300Z,85348.88
2023-04-22T19:23:38.381Z,85356.78
2023-04-22T19:26:04.477Z,85353.75
2023-04-22T19:28:30.586Z,85353.69
2023-04-22T19:30:56.727Z,85352.75
2023-04-22T19:33:22.858Z,85350.91
2023-04-22T19:35:49.022Z,85349.16
2023-04-22T19:38:15.186Z,85345.53
2023-04-22T19:40:41.300Z,85350.84
2023-04-22T19:43:07.429Z,85347.69
2023-04-22T19:45:33.546Z,85338.91
2023-04-22T19:47:59.634Z,85336.56
2023-04-22T19:50:25.747Z,85334.56
2023-04-22T19:52:51.866Z,85340.22
2023-04-22T19:55:17.960Z,85327.50
2023-04-22T19:57:44.083Z,85329.84
2023-04-22T20:00:10.225Z,85331.38
2023-04-22T20:02:36.486Z,85330.72
2023-04-22T20:05:02.673Z,85323.41
2023-04-22T20:07:28.772Z,85322.16
2023-04-22T20:09:54.849Z,85327.91
2023-04-22T20:12:20.964Z,85320.47
2023-04-22T20:14:47.076Z,85317.88
2023-04-22T20:17:13.172Z,85320.53
2023-04-22T20:19:39.561Z,85315.91
2023-04-22T20:22:05.838Z,85321.69
2023-04-22T20:24:34.305Z,85319.84
2023-04-22T20:27:00.430Z,85318.84
2023-04-22T20:29:26.557Z,85325.50
2023-04-22T20:31:52.684Z,85316.47
2023-04-22T20:34:18.813Z,85326.28
2023-04-22T20:36:44.902Z,85325.91
2023-04-22T20:39:11.005Z,85325.69
2023-04-22T20:41:37.123Z,85321.03
2023-04-22T20:44:03.216Z,85322.75
2023-04-22T20:46:29.357Z,85319.34
2023-04-22T20:48:55.469Z,85310.88
2023-04-22T20:51:21.574Z,85316.91
2023-04-22T20:53:47.672Z,85315.03
2023-04-22T20:56:13.773Z,85309.38
2023-04-22T20:58:39.900Z,85313.25
2023-04-22T21:01:06.037Z,85312.66
2023-04-22T21:03:32.257Z,85316.34
2023-04-22T21:05:58.512Z,85330.72
2023-04-22T21:08:24.622Z,85335.41
2023-04-22T21:10:50.742Z,85333.75
2023-04-22T21:13:16.867Z,85324.84
2023-04-22T21:15:42.975Z,85321.09
2023-04-22T21:18:09.072Z,85327.25
2023-04-22T21:20:35.180Z,85329.44
2023-04-22T21:23:01.282Z,85327.25
2023-04-22T21:25:27.383Z,85323.53
2023-04-22T21:27:53.509Z,85328.59
2023-04-22T21:30:19.616Z,85331.75
2023-04-22T21:32:45.739Z,85334.66
2023-04-22T21:35:11.885Z,85333.41
2023-04-22T21:37:37.985Z,85349.59
2023-04-22T21:40:04.099Z,85350.88
2023-04-22T21:42:30.195Z,85360.25
2023-04-22T21:44:56.307Z,85360.75
2023-04-22T21:47:22.405Z,85358.97
2023-04-22T21:49:48.495Z,85354.91
2023-04-22T21:52:14.628Z,85351.59
2023-04-22T21:54:40.886Z,85354.34
2023-04-22T21:57:07.182Z,85352.31
2023-04-22T21:59:33.289Z,85347.84
2023-04-22T22:01:59.497Z,85346.06
2023-04-22T22:04:25.856Z,85344.97
2023-04-22T22:06:52.117Z,85348.44
2023-04-22T22:09:18.336Z,85343.44
2023-04-22T22:11:44.431Z,85341.69
2023-04-22T22:14:10.545Z,85348.84
2023-04-22T22:16:36.681Z,85347.75
2023-04-22T22:19:02.933Z,85333.94
2023-04-22T22:21:29.118Z,85340.59
2023-04-22T22:23:55.246Z,85336.06
2023-04-22T22:26:21.346Z,85332.66
2023-04-22T22:28:47.531Z,85324.03
2023-04-22T22:31:13.640Z,85334.31
2023-04-22T22:33:39.772Z,85332.78
2023-04-22T22:36:05.942Z,85332.84
2023-04-22T22:38:32.150Z,85322.63
2023-04-22T22:40:58.248Z,85327.44
2023-04-22T22:43:24.362Z,85325.94
2023-04-22T22:45:50.483Z,85323.13
2023-04-22T22:48:16.582Z,85317.91
2023-04-22T22:50:42.683Z,85327.88
2023-04-22T22:53:08.778Z,85327.22
2023-04-22T22:55:34.879Z,85328.53
2023-04-22T22:58:01.001Z,85331.41
2023-04-22T23:00:27.116Z,85332.75
2023-04-22T23:02:53.380Z,85339.16
2023-04-22T23:05:19.680Z,85336.31
2023-04-22T23:07:45.805Z,85323.66
2023-04-22T23:10:11.940Z,85333.72
2023-04-22T23:12:38.080Z,85333.66
2023-04-22T23:15:04.188Z,85324.38
2023-04-22T23:17:30.364Z,85330.19
2023-04-22T23:19:56.531Z,85326.81
2023-04-22T23:22:22.763Z,85324.09
2023-04-22T23:24:48.873Z,85331.34
2023-04-22T23:27:14.974Z,85329.84
2023-04-22T23:29:41.079Z,85325.22
2023-04-22T23:32:07.202Z,85327.47
2023-04-22T23:34:33.385Z,85337.84
2023-04-22T23:36:59.461Z,85338.22
2023-04-22T23:39:25.566Z,85328.72
2023-04-22T23:41:51.690Z,85335.59
2023-04-22T23:44:17.835Z,85333.22
2023-04-22T23:46:44.118Z,85335.72
2023-04-22T23:49:10.264Z,85328.66
2023-04-22T23:51:36.359Z,85328.28
2023-04-22T23:54:02.486Z,85327.47
2023-04-22T23:56:28.578Z,85335.72
2023-04-22T23:58:54.699Z,85327.72
